Time;durP1;ratioP1;P1;durP2;ratioP2;P2;SDS_P1;SDS_P2;PMS_P1;PMS_P2;Temp;Humidity;BMP_temperature;BMP_pressure;BME280_temperature;BME280_humidity;BME280_pressure;Samples;Min_cycle;Max_cycle;Signal;HPM_P1;HPM_P2
2022/09/26 00:00:10;;;;;;;5.00;1.90;;;;;;;13.14;100.00;100327.97;5075507;28;20931;-83
2022/09/26 00:02:37;;;;;;;4.47;1.60;;;;;;;13.11;100.00;100325.91;5057721;28;20984;-83
2022/09/26 00:05:06;;;;;;;6.17;2.20;;;;;;;13.17;100.00;100323.81;5055446;28;20820;-81
2022/09/26 00:07:32;;;;;;;6.20;1.67;;;;;;;13.18;100.00;100316.44;5058728;28;20460;-83
2022/09/26 00:09:59;;;;;;;4.83;1.97;;;;;;;13.18;100.00;100311.81;5069834;28;20449;-83
2022/09/26 00:12:25;;;;;;;5.33;2.03;;;;;;;13.13;100.00;100309.28;5076727;28;20834;-84
2022/09/26 00:14:52;;;;;;;4.93;1.80;;;;;;;13.10;100.00;100312.63;5098613;28;20421;-83
2022/09/26 00:17:18;;;;;;;5.77;2.17;;;;;;;13.09;100.00;100311.03;5082958;28;20446;-83
2022/09/26 00:19:45;;;;;;;4.70;2.07;;;;;;;13.09;100.00;100305.59;5077340;28;20461;-83
2022/09/26 00:22:13;;;;;;;6.60;1.90;;;;;;;13.04;100.00;100305.78;5078159;28;20450;-84
2022/09/26 00:24:39;;;;;;;6.60;2.00;;;;;;;13.00;100.00;100297.47;5083941;28;20933;-83
2022/09/26 00:27:05;;;;;;;6.43;2.00;;;;;;;13.03;100.00;100307.69;5091670;28;20453;-83
2022/09/26 00:29:32;;;;;;;12.90;2.83;;;;;;;13.06;100.00;100303.56;5077921;28;20491;-83
2022/09/26 00:31:58;;;;;;;5.00;2.00;;;;;;;13.03;100.00;100296.81;5068483;28;20482;-83
2022/09/26 00:34:25;;;;;;;4.83;1.80;;;;;;;13.04;100.00;100297.63;5060151;28;20470;-83
2022/09/26 00:36:51;;;;;;;5.10;1.87;;;;;;;13.02;100.00;100297.97;5058368;28;20437;-82
2022/09/26 00:39:19;;;;;;;4.43;1.70;;;;;;;12.94;100.00;100293.34;5056945;28;20958;-83
2022/09/26 00:41:45;;;;;;;4.80;2.17;;;;;;;12.94;100.00;100297.97;5061928;28;20870;-83
2022/09/26 00:44:41;;;;;;;4.83;1.70;;;;;;;12.95;100.00;100302.28;5077312;28;20535;-83
2022/09/26 00:47:22;;;;;;;7.07;2.07;;;;;;;12.91;100.00;100301.34;5079267;28;20465;-83
2022/09/26 00:49:51;;;;;;;9.10;1.80;;;;;;;12.86;100.00;100291.44;5091550;28;20444;-83
2022/09/26 00:52:22;;;;;;;5.10;2.20;;;;;;;12.78;100.00;100292.25;5078953;28;20481;-83
2022/09/26 00:54:54;;;;;;;7.50;2.40;;;;;;;12.77;100.00;100286.00;5077154;28;20947;-83
2022/09/26 00:57:24;;;;;;;4.63;1.70;;;;;;;12.76;100.00;100283.63;5078397;28;20473;-84
2022/09/26 00:59:55;;;;;;;4.93;1.73;;;;;;;12.71;100.00;100276.44;5058211;28;20431;-84
2022/09/26 01:02:23;;;;;;;4.90;2.10;;;;;;;12.72;100.00;100278.03;5075486;28;20445;-83
2022/09/26 01:04:50;;;;;;;5.60;2.07;;;;;;;12.75;100.00;100271.13;5076902;28;20453;-84
2022/09/26 01:07:19;;;;;;;5.00;2.17;;;;;;;12.74;100.00;100274.97;5082896;28;20448;-82
2022/09/26 01:09:48;;;;;;;5.20;2.37;;;;;;;12.69;100.00;100265.09;5076096;28;20959;-83
2022/09/26 01:12:17;;;;;;;8.40;2.17;;;;;;;12.63;100.00;100272.63;5076477;28;20489;-83
2022/09/26 01:14:46;;;;;;;5.10;2.07;;;;;;;12.61;99.61;100265.88;5076303;28;20454;-83
2022/09/26 01:17:13;;;;;;;5.90;1.83;;;;;;;12.55;100.00;100267.19;5077385;28;20453;-83
2022/09/26 01:19:49;;;;;;;4.50;1.70;;;;;;;12.53;100.00;100261.28;5077168;28;20465;-83
2022/09/26 01:22:39;;;;;;;8.13;2.23;;;;;;;12.56;100.00;100256.00;5077037;28;20503;-83
2022/09/26 01:25:19;;;;;;;6.77;2.63;;;;;;;12.57;100.00;100254.91;5076343;28;20453;-83
2022/09/26 01:28:18;;;;;;;4.80;2.47;;;;;;;12.53;100.00;100253.16;5076458;28;20451;-84
2022/09/26 01:30:52;;;;;;;8.20;2.40;;;;;;;12.52;100.00;100256.97;5075753;28;20503;-83
2022/09/26 01:33:38;;;;;;;7.43;1.90;;;;;;;12.51;100.00;100248.00;5076507;28;20489;-82
2022/09/26 01:36:33;;;;;;;4.80;2.00;;;;;;;12.53;100.00;100245.00;5076144;28;20994;-82
2022/09/26 01:39:14;;;;;;;5.03;1.70;;;;;;;12.53;100.00;100234.13;5076477;28;20613;-83
2022/09/26 01:41:50;;;;;;;4.20;1.60;;;;;;;12.57;100.00;100229.63;5076487;28;20797;-83
2022/09/26 01:44:29;;;;;;;6.97;3.07;;;;;;;12.53;100.00;100234.91;5076443;28;20877;-83
2022/09/26 01:47:01;;;;;;;7.20;2.23;;;;;;;12.54;100.00;100227.56;5081852;28;20976;-84
2022/09/26 01:49:34;;;;;;;6.97;2.20;;;;;;;12.56;100.00;100228.03;5094137;28;20428;-83
2022/09/26 01:52:08;;;;;;;5.00;1.80;;;;;;;12.60;100.00;100220.81;5078954;28;20869;-84
2022/09/26 01:54:37;;;;;;;4.47;2.07;;;;;;;12.62;100.00;100218.59;5076827;28;20477;-84
2022/09/26 01:57:06;;;;;;;14.57;2.50;;;;;;;12.63;100.00;100220.97;5073468;28;20446;-80
2022/09/26 01:59:39;;;;;;;4.80;2.00;;;;;;;12.63;100.00;100207.41;5075551;28;20462;-84
2022/09/26 02:02:13;;;;;;;6.30;2.67;;;;;;;12.65;100.00;100217.94;5076954;28;20957;-83
2022/09/26 02:04:43;;;;;;;9.63;2.60;;;;;;;12.66;100.00;100216.84;5090013;28;20433;-84
2022/09/26 02:07:15;;;;;;;4.93;2.17;;;;;;;12.56;100.00;100215.22;5093586;28;20441;-84
2022/09/26 02:09:47;;;;;;;4.60;2.00;;;;;;;12.56;100.00;100214.44;5079373;28;20480;-84
2022/09/26 02:12:23;;;;;;;5.87;2.37;;;;;;;12.58;100.00;100207.56;5071096;28;20448;-83
2022/09/26 02:14:52;;;;;;;4.70;1.90;;;;;;;12.62;100.00;100210.44;5076395;28;20461;-84
2022/09/26 02:17:25;;;;;;;6.33;2.63;;;;;;;12.63;100.00;100214.75;5058598;28;20450;-83
2022/09/26 02:19:56;;;;;;;6.00;2.50;;;;;;;12.61;100.00;100203.41;5069384;28;20452;-83
2022/09/26 02:22:23;;;;;;;5.73;2.10;;;;;;;12.61;100.00;100200.69;5073880;28;20457;-83
2022/09/26 02:24:50;;;;;;;6.30;2.60;;;;;;;12.58;100.00;100204.06;5076241;28;20456;-83
2022/09/26 02:27:16;;;;;;;6.77;2.70;;;;;;;12.56;100.00;100192.72;5084259;28;20465;-84
2022/09/26 02:29:43;;;;;;;7.33;2.07;;;;;;;12.52;100.00;100194.47;5080167;28;20472;-84
2022/09/26 02:32:14;;;;;;;7.13;2.80;;;;;;;12.53;100.00;100187.94;5075815;28;20472;-83
2022/09/26 02:34:45;;;;;;;10.03;2.27;;;;;;;12.49;100.00;100176.91;5076685;28;20457;-84
2022/09/26 02:37:13;;;;;;;6.73;2.30;;;;;;;12.56;100.00;100181.84;5097850;22;20500;-69
2022/09/26 02:39:41;;;;;;;5.57;2.17;;;;;;;12.59;100.00;100175.75;5071094;28;20497;-69
2022/09/26 02:42:17;;;;;;;4.97;2.20;;;;;;;12.60;100.00;100177.34;5073938;28;20472;-69
2022/09/26 02:44:55;;;;;;;5.87;2.13;;;;;;;12.51;100.00;100174.66;5074347;28;20481;-69
2022/09/26 02:47:38;;;;;;;5.00;1.40;;;;;;;12.40;99.79;100161.78;5052349;28;20967;-69
2022/09/26 02:50:27;;;;;;;4.80;1.90;;;;;;;12.36;99.09;100167.84;5044223;28;20443;-69
2022/09/26 02:53:07;;;;;;;4.47;2.03;;;;;;;12.35;100.00;100170.84;5041571;28;20473;-69
2022/09/26 02:55:44;;;;;;;8.50;2.00;;;;;;;12.31;100.00;100172.66;5054818;28;21025;-69
2022/09/26 02:58:18;;;;;;;4.83;1.67;;;;;;;12.34;100.00;100169.28;5053451;28;20462;-69
2022/09/26 03:00:55;;;;;;;6.13;2.70;;;;;;;12.32;100.00;100175.03;5039563;28;20854;-69
2022/09/26 03:03:25;;;;;;;6.00;2.00;;;;;;;12.21;100.00;100175.69;5046490;28;20446;-69
2022/09/26 03:05:57;;;;;;;5.33;2.10;;;;;;;12.18;100.00;100168.19;5055218;28;20520;-70
2022/09/26 03:08:27;;;;;;;5.20;2.07;;;;;;;12.22;100.00;100172.66;5052983;28;20516;-70
2022/09/26 03:10:57;;;;;;;17.83;3.10;;;;;;;12.14;100.00;100170.75;5044743;28;20453;-69
2022/09/26 03:13:26;;;;;;;4.80;2.23;;;;;;;12.04;100.00;100165.63;5053460;28;20477;-70
2022/09/26 03:15:55;;;;;;;5.90;2.20;;;;;;;12.02;100.00;100174.09;5054221;28;20504;-69
2022/09/26 03:18:27;;;;;;;7.13;2.30;;;;;;;12.04;100.00;100171.06;5055074;28;20451;-69
2022/09/26 03:20:54;;;;;;;6.10;2.23;;;;;;;12.07;100.00;100165.78;5055088;28;20447;-69
2022/09/26 03:23:23;;;;;;;5.17;2.23;;;;;;;12.05;100.00;100159.91;5052536;28;20457;-69
2022/09/26 03:25:59;;;;;;;8.40;2.90;;;;;;;12.01;100.00;100163.59;5046121;28;20513;-69
2022/09/26 03:28:26;;;;;;;6.13;2.70;;;;;;;11.98;100.00;100164.22;5046749;28;20434;-69
2022/09/26 03:30:52;;;;;;;10.13;2.67;;;;;;;11.96;100.00;100155.59;5053497;28;20462;-70
2022/09/26 03:33:19;;;;;;;6.60;2.23;;;;;;;11.97;100.00;100157.19;5053699;28;20528;-70
2022/09/26 03:35:45;;;;;;;5.40;2.00;;;;;;;11.93;100.00;100158.97;5054398;28;20991;-69
2022/09/26 03:38:13;;;;;;;11.30;2.37;;;;;;;11.93;100.00;100148.09;5052356;28;20462;-69
2022/09/26 03:40:40;;;;;;;6.53;2.03;;;;;;;11.86;100.00;100148.56;5053263;28;20434;-69
2022/09/26 03:43:07;;;;;;;7.53;2.37;;;;;;;11.92;100.00;100149.22;5054790;28;20442;-69
2022/09/26 03:45:35;;;;;;;4.80;1.93;;;;;;;11.92;100.00;100150.00;5052635;28;20893;-69
2022/09/26 03:48:03;;;;;;;6.13;2.30;;;;;;;11.92;100.00;100146.50;5053298;28;20473;-69
2022/09/26 03:50:29;;;;;;;6.03;3.00;;;;;;;11.89;100.00;100144.44;5053321;28;20470;-69
2022/09/26 03:52:56;;;;;;;8.97;2.27;;;;;;;11.87;100.00;100142.03;5051373;28;20467;-70
2022/09/26 03:55:23;;;;;;;5.57;2.43;;;;;;;11.74;100.00;100138.34;5054528;28;20531;-70
2022/09/26 03:57:50;;;;;;;5.00;2.30;;;;;;;11.61;100.00;100126.53;5053326;28;20450;-70
2022/09/26 04:00:16;;;;;;;9.30;2.50;;;;;;;11.52;100.00;100133.06;5051291;28;20491;-70
2022/09/26 04:02:43;;;;;;;5.70;2.10;;;;;;;11.47;100.00;100125.91;5051728;28;20470;-69
2022/09/26 04:05:10;;;;;;;9.30;2.50;;;;;;;11.41;100.00;100126.34;5053486;28;20466;-69
2022/09/26 04:07:36;;;;;;;5.30;2.13;;;;;;;11.30;100.00;100117.75;5053449;28;20945;-69
2022/09/26 04:10:03;;;;;;;4.70;1.90;;;;;;;11.32;100.00;100118.19;5051175;28;20528;-70
2022/09/26 04:12:32;;;;;;;4.90;2.30;;;;;;;11.24;100.00;100122.50;5052122;28;20517;-69
2022/09/26 04:14:58;;;;;;;5.80;1.67;;;;;;;11.25;100.00;100118.69;5053398;28;20486;-69
2022/09/26 04:17:25;;;;;;;4.40;1.90;;;;;;;11.27;100.00;100105.59;5043498;28;20455;-69
2022/09/26 04:19:51;;;;;;;9.67;2.60;;;;;;;11.28;100.00;100109.91;5053963;28;20800;-69
2022/09/26 04:22:17;;;;;;;8.50;2.53;;;;;;;11.21;100.00;100111.50;5051806;28;20646;-69
2022/09/26 04:24:44;;;;;;;4.23;1.70;;;;;;;11.21;100.00;100104.16;5052401;28;21046;-69
2022/09/26 04:27:10;;;;;;;5.50;2.13;;;;;;;11.21;100.00;100100.66;5053806;28;20846;-69
2022/09/26 04:29:38;;;;;;;5.03;1.80;;;;;;;11.21;100.00;100104.16;5061995;28;20496;-69
2022/09/26 04:32:05;;;;;;;6.30;2.33;;;;;;;11.22;100.00;100103.03;5053004;28;20930;-69
2022/09/26 04:34:31;;;;;;;6.63;2.30;;;;;;;11.20;100.00;100096.34;5051380;28;20999;-67
2022/09/26 04:36:58;;;;;;;4.30;2.00;;;;;;;11.15;100.00;100100.00;5052330;28;20477;-69
2022/09/26 04:39:24;;;;;;;4.80;2.20;;;;;;;11.13;100.00;100104.94;5053053;28;20465;-70
2022/09/26 04:41:52;;;;;;;5.90;2.67;;;;;;;11.05;100.00;100094.88;5051790;28;20494;-69
2022/09/26 04:44:18;;;;;;;5.53;2.40;;;;;;;11.05;100.00;100092.16;5053320;28;20442;-69
2022/09/26 04:46:46;;;;;;;14.37;2.87;;;;;;;10.96;100.00;100102.19;5075152;22;20454;-70
2022/09/26 04:49:13;;;;;;;5.03;2.23;;;;;;;10.98;100.00;100092.66;5052069;28;20554;-69
2022/09/26 04:51:39;;;;;;;5.23;2.30;;;;;;;10.98;100.00;100097.25;5053076;28;20512;-69
2022/09/26 04:54:07;;;;;;;4.77;1.57;;;;;;;10.93;100.00;100092.78;5051881;28;20486;-70
2022/09/26 04:56:34;;;;;;;5.60;2.27;;;;;;;10.86;100.00;100087.84;5051955;28;20467;-69
2022/09/26 04:59:01;;;;;;;5.10;2.00;;;;;;;10.90;100.00;100084.50;5052308;28;20827;-69
2022/09/26 05:01:27;;;;;;;15.53;3.07;;;;;;;10.74;100.00;100084.94;5053730;28;20466;-77
2022/09/26 05:03:55;;;;;;;5.13;2.20;;;;;;;10.70;100.00;100089.38;5051044;28;20470;-70
2022/09/26 05:06:22;;;;;;;6.73;2.67;;;;;;;10.61;100.00;100096.66;5039128;28;20569;-69
2022/09/26 05:08:49;;;;;;;6.53;2.50;;;;;;;10.64;100.00;100084.44;5046420;28;20879;-68
2022/09/26 05:11:18;;;;;;;4.67;2.13;;;;;;;10.59;100.00;100085.38;5042596;28;20481;-69
2022/09/26 05:13:45;;;;;;;5.93;2.60;;;;;;;10.54;100.00;100088.22;5050418;28;21034;-72
2022/09/26 05:16:13;;;;;;;5.33;2.57;;;;;;;10.59;100.00;100090.78;5052900;28;20447;-70
2022/09/26 05:18:40;;;;;;;5.87;2.87;;;;;;;10.59;100.00;100086.16;5050544;28;20490;-69
2022/09/26 05:21:08;;;;;;;5.63;2.50;;;;;;;10.59;100.00;100088.88;5052128;28;20884;-71
2022/09/26 05:26:22;;;;;;;5.20;2.50;;;;;;;10.71;100.00;100090.16;5037844;28;21033;-71
2022/09/26 05:28:52;;;;;;;5.57;2.50;;;;;;;10.69;100.00;100079.66;5049164;28;20482;-72
2022/09/26 05:31:19;;;;;;;6.17;2.53;;;;;;;10.71;100.00;100082.03;5045257;28;20983;-74
2022/09/26 05:33:46;;;;;;;6.03;2.60;;;;;;;10.81;100.00;100084.47;5052386;28;20576;-71
2022/09/26 05:36:14;;;;;;;6.93;2.90;;;;;;;10.86;100.00;100085.13;5052048;28;20458;-71
2022/09/26 05:38:40;;;;;;;6.90;2.70;;;;;;;10.90;100.00;100076.38;5052863;28;20470;-71
2022/09/26 05:41:06;;;;;;;5.43;1.90;;;;;;;10.89;100.00;100072.03;5051187;28;20831;-71
2022/09/26 05:43:34;;;;;;;9.00;3.70;;;;;;;10.94;100.00;100070.00;5050548;28;20516;-72
2022/09/26 05:46:02;;;;;;;6.20;2.63;;;;;;;10.98;100.00;100064.72;5037883;28;20231;-70
2022/09/26 05:48:31;;;;;;;14.67;2.97;;;;;;;11.04;100.00;100069.69;5050692;28;20486;-70
2022/09/26 05:51:02;;;;;;;6.57;3.00;;;;;;;11.16;100.00;100074.50;5052437;28;20492;-73
2022/09/26 05:53:29;;;;;;;8.40;2.80;;;;;;;11.21;100.00;100073.56;5050130;28;20955;-70
2022/09/26 05:55:56;;;;;;;6.43;3.00;;;;;;;11.18;100.00;100074.19;5048198;28;20476;-72
2022/09/26 05:58:22;;;;;;;5.73;2.73;;;;;;;11.16;100.00;100076.44;5049636;28;20495;-71
2022/09/26 06:00:49;;;;;;;6.50;3.10;;;;;;;11.23;100.00;100071.31;5051714;28;20462;-71
2022/09/26 06:03:16;;;;;;;7.77;3.00;;;;;;;11.24;100.00;100072.91;5050952;28;20817;-70
2022/09/26 06:05:43;;;;;;;5.63;2.73;;;;;;;11.28;100.00;100069.22;5051220;28;20458;-70
2022/09/26 06:08:10;;;;;;;9.50;3.40;;;;;;;11.35;100.00;100068.78;5050920;28;20474;-70
2022/09/26 06:10:39;;;;;;;7.93;3.60;;;;;;;11.43;100.00;100070.69;5053674;28;20521;-71
2022/09/26 06:13:07;;;;;;;6.47;2.57;;;;;;;11.49;100.00;100061.25;5054992;28;20539;-72
2022/09/26 06:15:33;;;;;;;5.80;2.77;;;;;;;11.59;100.00;100065.56;5052579;28;20481;-70
2022/09/26 06:18:03;;;;;;;9.33;2.43;;;;;;;11.68;100.00;100073.69;5055671;28;20519;-70
2022/09/26 06:20:29;;;;;;;12.73;2.77;;;;;;;11.73;100.00;100068.91;5052150;28;20544;-70
2022/09/26 06:22:56;;;;;;;7.40;2.77;;;;;;;11.80;100.00;100057.56;5056437;28;20811;-70
2022/09/26 06:25:23;;;;;;;6.70;3.00;;;;;;;11.94;100.00;100066.34;5055009;28;20465;-70
2022/09/26 06:27:55;;;;;;;7.50;3.20;;;;;;;12.02;100.00;100062.81;5054458;28;20481;-70
2022/09/26 06:30:22;;;;;;;4.70;2.20;;;;;;;12.08;100.00;100053.38;5051266;28;20467;-70
2022/09/26 06:32:48;;;;;;;6.67;2.50;;;;;;;12.15;100.00;100052.09;5054699;28;20520;-69
2022/09/26 06:35:16;;;;;;;5.53;2.50;;;;;;;12.22;100.00;100047.75;5054515;28;20485;-71
2022/09/26 06:37:43;;;;;;;5.53;2.23;;;;;;;12.26;100.00;100045.16;5050554;28;20509;-72
2022/09/26 06:40:10;;;;;;;6.43;2.80;;;;;;;12.35;100.00;100052.19;5051076;28;20466;-74
2022/09/26 06:42:37;;;;;;;6.37;2.77;;;;;;;12.46;100.00;100040.94;5049168;28;20497;-71
2022/09/26 06:45:07;;;;;;;4.60;2.23;;;;;;;12.52;100.00;100048.56;5053221;28;20516;-71
2022/09/26 06:47:33;;;;;;;8.30;2.27;;;;;;;12.57;100.00;100040.25;5054565;28;21025;-74
2022/09/26 06:50:00;;;;;;;9.73;3.10;;;;;;;12.66;100.00;100048.38;5051383;28;20979;-72
2022/09/26 06:52:33;;;;;;;6.93;2.37;;;;;;;12.69;100.00;100042.25;5042213;28;20461;-72
2022/09/26 06:55:00;;;;;;;8.80;3.73;;;;;;;12.73;100.00;100040.47;5053113;28;20827;-70
2022/09/26 06:57:26;;;;;;;10.57;3.27;;;;;;;12.76;100.00;100039.03;5054808;28;20842;-70
2022/09/26 06:59:52;;;;;;;6.60;2.80;;;;;;;12.80;100.00;100037.25;5055678;28;20442;-70
2022/09/26 07:02:20;;;;;;;9.83;3.70;;;;;;;12.87;100.00;100027.44;5053119;28;20465;-70
2022/09/26 07:04:47;;;;;;;8.47;3.50;;;;;;;12.88;100.00;100026.31;5050469;28;20598;-70
2022/09/26 07:07:13;;;;;;;8.30;3.70;;;;;;;12.96;100.00;100026.56;5053676;28;20486;-70
2022/09/26 07:09:39;;;;;;;7.97;3.40;;;;;;;13.01;100.00;100032.59;5053854;28;20469;-69
2022/09/26 07:12:06;;;;;;;9.10;3.77;;;;;;;13.10;100.00;100038.81;5051962;28;20462;-71
2022/09/26 07:14:32;;;;;;;7.90;3.23;;;;;;;13.14;100.00;100033.47;5051395;28;20535;-69
2022/09/26 07:16:59;;;;;;;7.37;3.57;;;;;;;13.20;100.00;100036.81;5052431;28;21041;-77
2022/09/26 07:19:27;;;;;;;10.53;3.63;;;;;;;13.27;99.03;100042.53;5052623;28;20509;-71
2022/09/26 07:21:53;;;;;;;7.70;3.80;;;;;;;13.32;98.53;100032.25;5052597;28;20472;-70
2022/09/26 07:24:20;;;;;;;5.93;2.80;;;;;;;13.38;98.35;100027.41;5054509;28;20583;-70
2022/09/26 07:26:46;;;;;;;6.20;2.80;;;;;;;13.38;98.02;100030.94;5051650;28;20959;-70
2022/09/26 07:29:13;;;;;;;6.87;2.67;;;;;;;13.46;97.41;100028.44;5052637;28;20462;-70
2022/09/26 07:31:39;;;;;;;6.20;2.43;;;;;;;13.49;96.41;100027.78;5053079;28;20469;-74
2022/09/26 07:34:07;;;;;;;11.07;2.60;;;;;;;13.49;96.07;100030.50;5052214;28;20462;-70
2022/09/26 07:36:35;;;;;;;8.97;2.70;;;;;;;13.56;95.85;100033.50;5054722;28;20957;-70
2022/09/26 07:39:01;;;;;;;5.60;1.80;;;;;;;13.65;93.46;100031.47;5053851;28;20469;-69
2022/09/26 07:41:30;;;;;;;4.93;2.10;;;;;;;13.71;92.29;100032.84;5048814;28;20462;-71
2022/09/26 07:43:57;;;;;;;6.27;1.97;;;;;;;13.76;92.84;100021.75;5049893;28;20462;-71
2022/09/26 07:51:55;;;;;;;4.50;1.80;;;;;;;13.94;87.10;100010.69;5054608;28;20402;-69
2022/09/26 07:54:21;;;;;;;8.17;1.57;;;;;;;13.98;87.79;100012.38;5052610;28;20518;-69
2022/09/26 07:56:48;;;;;;;4.17;1.30;;;;;;;14.02;86.29;100017.97;5053590;28;20458;-69
2022/09/26 07:59:14;;;;;;;5.37;1.50;;;;;;;14.08;86.42;100009.25;5054507;28;20446;-69
2022/09/26 08:01:40;;;;;;;5.40;1.30;;;;;;;14.14;84.10;100009.81;5053706;28;20471;-69
2022/09/26 08:04:07;;;;;;;3.80;1.33;;;;;;;14.22;84.89;100014.38;5052616;28;20453;-71
2022/09/26 08:06:35;;;;;;;4.30;1.23;;;;;;;14.29;84.94;100019.22;5054298;28;20484;-69
2022/09/26 08:09:03;;;;;;;3.57;1.30;;;;;;;14.34;83.17;100008.94;5049575;28;20656;-70
2022/09/26 08:11:30;;;;;;;3.60;1.00;;;;;;;14.37;82.29;100008.22;5049570;28;20463;-70
2022/09/26 08:13:56;;;;;;;3.77;1.10;;;;;;;14.34;81.37;100019.81;5049779;28;20462;-70
2022/09/26 08:16:23;;;;;;;2.90;0.80;;;;;;;14.43;80.00;100016.97;5051765;28;20565;-69
2022/09/26 08:18:50;;;;;;;5.50;1.50;;;;;;;14.53;79.44;100019.28;5054122;28;20462;-72
2022/09/26 08:21:16;;;;;;;5.90;1.37;;;;;;;14.56;80.01;100023.25;5050007;28;20469;-76
2022/09/26 08:23:43;;;;;;;3.90;1.30;;;;;;;14.63;76.64;100020.75;5052521;28;20457;-70
2022/09/26 08:26:11;;;;;;;3.37;0.90;;;;;;;14.71;77.55;100022.56;5051237;28;20820;-70
2022/09/26 08:28:37;;;;;;;6.60;1.87;;;;;;;14.73;77.24;100016.75;5053823;28;20462;-71
2022/09/26 08:31:05;;;;;;;3.40;1.00;;;;;;;14.75;77.11;100009.03;5053250;28;20500;-69
2022/09/26 08:33:34;;;;;;;5.13;1.60;;;;;;;14.85;77.04;100012.09;5053444;28;20442;-71
2022/09/26 08:36:05;;;;;;;6.33;1.20;;;;;;;14.91;75.31;100003.66;5053858;28;20518;-70
2022/09/26 08:38:31;;;;;;;4.27;0.70;;;;;;;14.95;73.43;100010.81;5053921;28;20474;-71
2022/09/26 08:41:10;;;;;;;3.50;1.10;;;;;;;14.95;72.96;100010.81;5051843;28;20842;-70
2022/09/26 08:43:51;;;;;;;3.73;0.97;;;;;;;14.98;70.47;100007.41;5050062;28;20548;-71
2022/09/26 08:46:42;;;;;;;4.73;1.00;;;;;;;15.07;71.38;100013.50;5048759;28;20446;-73
2022/09/26 08:49:33;;;;;;;3.60;1.07;;;;;;;15.23;73.75;100015.50;5047134;28;20496;-72
2022/09/26 08:52:04;;;;;;;7.83;1.37;;;;;;;15.39;73.16;100010.91;5051382;28;20463;-70
2022/09/26 08:54:37;;;;;;;3.17;0.87;;;;;;;15.42;74.00;100007.50;5049256;28;20458;-71
2022/09/26 08:57:07;;;;;;;7.60;1.40;;;;;;;15.45;72.46;100005.97;5049282;28;21002;-69
2022/09/26 08:59:40;;;;;;;5.23;1.00;;;;;;;15.46;72.90;100004.88;5051410;28;20512;-70
2022/09/26 09:02:17;;;;;;;3.93;1.20;;;;;;;15.50;72.76;100003.03;5034550;28;20443;-71
2022/09/26 09:04:50;;;;;;;4.00;1.40;;;;;;;15.46;71.42;99991.22;5037724;28;20450;-70
2022/09/26 09:07:21;;;;;;;6.13;1.43;;;;;;;15.46;73.88;99996.69;5050394;28;20485;-74
2022/09/26 09:09:47;;;;;;;4.33;1.40;;;;;;;15.50;72.54;99986.66;5053417;28;20442;-71
2022/09/26 09:12:20;;;;;;;3.53;0.93;;;;;;;15.53;71.93;99983.19;5047975;28;20968;-71
2022/09/26 09:15:04;;;;;;;4.57;1.10;;;;;;;15.52;71.33;99976.97;5049933;28;20470;-69
2022/09/26 09:17:37;;;;;;;3.73;1.00;;;;;;;15.58;74.67;99977.50;5051208;28;20490;-70
2022/09/26 09:20:12;;;;;;;3.40;1.00;;;;;;;15.68;71.21;99981.69;5048329;28;20807;-72
2022/09/26 09:22:55;;;;;;;3.57;1.20;;;;;;;15.80;70.62;99971.47;5046058;28;20455;-71
2022/09/26 09:25:23;;;;;;;3.70;0.90;;;;;;;15.84;67.45;99972.34;5046993;28;20873;-71
2022/09/26 09:28:04;;;;;;;2.90;0.70;;;;;;;15.94;67.99;99956.59;5049156;28;20890;-72
2022/09/26 09:30:40;;;;;;;4.37;1.23;;;;;;;16.05;66.47;99968.59;5051157;28;20963;-71
2022/09/26 09:33:12;;;;;;;3.63;0.80;;;;;;;16.12;65.81;99963.31;5046596;28;20544;-74
2022/09/26 09:35:43;;;;;;;3.83;0.80;;;;;;;16.18;64.32;99964.59;5048269;28;20490;-71
2022/09/26 09:38:15;;;;;;;3.77;0.60;;;;;;;16.28;63.36;99961.31;5051687;28;20508;-71
2022/09/26 09:40:48;;;;;;;3.10;0.70;;;;;;;16.31;63.96;99955.16;5049064;28;20878;-72
2022/09/26 09:43:24;;;;;;;8.73;1.50;;;;;;;16.35;63.44;99958.00;5045391;28;20458;-72
2022/09/26 09:45:55;;;;;;;3.70;1.03;;;;;;;16.51;65.00;99953.28;5048327;28;20454;-74
2022/09/26 09:48:26;;;;;;;4.60;1.03;;;;;;;16.63;61.86;99952.34;5048685;28;20490;-73
2022/09/26 09:51:04;;;;;;;3.10;0.80;;;;;;;16.70;61.40;99952.53;5051028;28;21026;-74
2022/09/26 09:53:46;;;;;;;5.30;0.77;;;;;;;16.73;61.55;99942.81;5052956;28;20985;-74
2022/09/26 09:56:24;;;;;;;2.80;0.53;;;;;;;16.91;62.89;99938.53;5053692;28;20478;-75
2022/09/26 09:59:03;;;;;;;3.00;0.90;;;;;;;17.07;59.75;99941.97;5056971;28;20487;-77
2022/09/26 10:01:35;;;;;;;3.30;0.90;;;;;;;17.21;59.52;99936.00;5053809;28;20951;-73
2022/09/26 10:04:10;;;;;;;3.00;0.60;;;;;;;17.32;58.51;99926.06;5054583;28;20464;-75
2022/09/26 10:06:40;;;;;;;4.30;0.67;;;;;;;17.38;57.53;99934.75;5048735;28;20454;-73
2022/09/26 10:09:17;;;;;;;3.20;0.80;;;;;;;17.38;58.66;99919.13;5051256;28;20461;-74
2022/09/26 10:11:44;;;;;;;3.73;0.80;;;;;;;17.44;58.38;99922.34;5050822;28;21265;-73
2022/09/26 10:14:13;;;;;;;2.80;0.53;;;;;;;17.49;58.85;99924.03;5053110;28;20465;-73
2022/09/26 10:17:14;;;;;;;2.93;0.63;;;;;;;17.53;58.29;99916.63;5055152;28;20478;-74
2022/09/26 10:19:43;;;;;;;7.83;1.10;;;;;;;17.49;60.82;99902.13;5056571;28;20529;-73
2022/09/26 10:22:18;;;;;;;3.30;0.90;;;;;;;17.42;58.31;99905.50;5056420;28;20438;-75
2022/09/26 10:24:47;;;;;;;3.40;0.90;;;;;;;17.24;57.12;99902.44;5056413;28;20492;-73
2022/09/26 10:27:17;;;;;;;3.60;0.60;;;;;;;17.07;57.62;99905.63;5055952;28;20894;-74
2022/09/26 10:29:46;;;;;;;3.00;0.60;;;;;;;17.06;59.42;99895.84;5056030;28;20442;-73
2022/09/26 10:32:13;;;;;;;3.00;0.60;;;;;;;16.96;58.93;99902.69;5056372;28;20450;-73
2022/09/26 10:34:40;;;;;;;3.10;0.60;;;;;;;16.79;61.25;99882.03;5056253;28;20446;-73
2022/09/26 10:37:22;;;;;;;3.73;0.80;;;;;;;16.62;61.47;99896.09;5055799;28;20543;-73
2022/09/26 10:42:36;;;;;;;3.60;1.00;;;;;;;16.52;62.37;99900.19;5035755;28;20535;-73
2022/09/26 10:45:11;;;;;;;3.00;0.50;;;;;;;16.43;62.81;99896.88;5055909;28;20438;-74
2022/09/26 10:47:38;;;;;;;2.90;0.60;;;;;;;16.37;62.21;99892.81;5055803;28;20573;-74
2022/09/26 10:50:11;;;;;;;3.63;0.63;;;;;;;16.35;60.21;99898.63;5056127;28;20880;-74
2022/09/26 10:52:44;;;;;;;5.50;0.87;;;;;;;16.35;61.04;99895.91;5055953;28;20438;-74
2022/09/26 10:55:15;;;;;;;4.43;0.83;;;;;;;16.39;59.54;99899.50;5055885;28;20513;-74
2022/09/26 10:57:45;;;;;;;3.10;0.70;;;;;;;16.50;60.20;99893.47;5055084;28;20868;-75
2022/09/26 11:00:18;;;;;;;2.90;0.50;;;;;;;16.69;60.67;99893.53;5055870;28;20441;-73
2022/09/26 11:02:48;;;;;;;3.13;0.70;;;;;;;16.84;60.93;99884.47;5055857;28;20439;-75
2022/09/26 11:08:05;;;;;;;4.97;0.73;;;;;;;17.08;58.05;99882.56;5055414;28;20461;-75
2022/09/26 11:10:33;;;;;;;3.40;0.83;;;;;;;17.25;59.15;99878.59;5055740;28;20429;-74
2022/09/26 11:13:02;;;;;;;8.10;0.90;;;;;;;17.54;56.82;99867.00;5055196;28;20453;-71
2022/09/26 11:15:28;;;;;;;3.97;1.00;;;;;;;17.75;59.66;99866.59;5055545;28;20559;-72
2022/09/26 11:17:55;;;;;;;2.80;0.50;;;;;;;17.63;55.72;99869.50;5055428;28;20520;-75
2022/09/26 11:20:36;;;;;;;3.57;0.70;;;;;;;17.69;56.75;99869.97;5055438;28;20438;-72
2022/09/26 11:23:15;;;;;;;2.90;0.63;;;;;;;17.67;59.99;99856.66;5055519;28;20419;-72
2022/09/26 11:25:52;;;;;;;4.90;0.90;;;;;;;17.63;58.46;99847.56;5055609;28;20435;-71
2022/09/26 11:28:23;;;;;;;2.90;0.60;;;;;;;17.72;60.23;99848.13;5055229;28;20979;-71
2022/09/26 11:30:55;;;;;;;3.23;0.80;;;;;;;17.66;60.04;99846.81;5055374;28;20488;-72
2022/09/26 11:33:24;;;;;;;3.57;0.70;;;;;;;17.54;57.90;99839.59;5054890;28;20935;-73
2022/09/26 11:36:04;;;;;;;3.20;0.60;;;;;;;17.48;59.18;99841.06;5055130;28;20482;-72
2022/09/26 11:38:46;;;;;;;3.03;0.63;;;;;;;17.39;58.15;99838.56;5055186;28;20473;-71
2022/09/26 11:41:39;;;;;;;7.17;1.00;;;;;;;17.43;58.71;99841.38;5055167;28;20431;-72
2022/09/26 11:44:26;;;;;;;2.97;0.50;;;;;;;17.80;59.15;99841.63;5055057;28;20474;-72
2022/09/26 11:47:04;;;;;;;2.80;0.50;;;;;;;18.74;57.38;99833.50;5054847;28;20819;-72
2022/09/26 11:49:57;;;;;;;6.53;0.77;;;;;;;20.07;53.89;99839.03;5054656;28;20426;-72